sensor_id;sensor_type;location;lat;lon;timestamp;temperature;humidity
17202;DHT22;8717;53.588;10.176;2022-09-13T00:00:29;15.80;99.90
17202;DHT22;8717;53.588;10.176;2022-09-13T00:02:56;15.80;99.90
17202;DHT22;8717;53.588;10.176;2022-09-13T00:05:23;15.80;99.90
17202;DHT22;8717;53.588;10.176;2022-09-13T00:07:52;15.70;99.90
17202;DHT22;8717;53.588;10.176;2022-09-13T00:10:21;15.80;99.90
17202;DHT22;8717;53.588;10.176;2022-09-13T00:12:49;15.80;99.90
17202;DHT22;8717;53.588;10.176;2022-09-13T00:15:16;15.70;99.90
17202;DHT22;8717;53.588;10.176;2022-09-13T00:17:43;15.70;99.90
17202;DHT22;8717;53.588;10.176;2022-09-13T00:20:10;15.70;99.90
17202;DHT22;8717;53.588;10.176;2022-09-13T00:22:37;15.70;99.90
17202;DHT22;8717;53.588;10.176;2022-09-13T00:25:06;15.70;99.90
17202;DHT22;8717;53.588;10.176;2022-09-13T00:27:34;15.70;99.90
17202;DHT22;8717;53.588;10.176;2022-09-13T00:30:01;15.70;99.90
17202;DHT22;8717;53.588;10.176;2022-09-13T00:32:28;15.70;99.90
17202;DHT22;8717;53.588;10.176;2022-09-13T00:34:54;15.70;99.90
17202;DHT22;8717;53.588;10.176;2022-09-13T00:37:21;15.70;99.90
17202;DHT22;8717;53.588;10.176;2022-09-13T00:39:48;15.60;99.90
17202;DHT22;8717;53.588;10.176;2022-09-13T00:42:24;15.70;99.90
17202;DHT22;8717;53.588;10.176;2022-09-13T00:44:55;15.60;99.90
17202;DHT22;8717;53.588;10.176;2022-09-13T00:47:27;15.60;99.90
17202;DHT22;8717;53.588;10.176;2022-09-13T00:49:57;15.60;99.90
17202;DHT22;8717;53.588;10.176;2022-09-13T00:52:27;15.60;99.90
17202;DHT22;8717;53.588;10.176;2022-09-13T00:54:58;15.60;99.90
17202;DHT22;8717;53.588;10.176;2022-09-13T00:57:30;15.50;99.90
17202;DHT22;8717;53.588;10.176;2022-09-13T01:00:02;15.50;99.90
17202;DHT22;8717;53.588;10.176;2022-09-13T01:02:34;15.40;99.90
17202;DHT22;8717;53.588;10.176;2022-09-13T01:05:01;15.30;99.90
17202;DHT22;8717;53.588;10.176;2022-09-13T01:07:28;15.20;99.90
17202;DHT22;8717;53.588;10.176;2022-09-13T01:09:55;15.10;99.90
17202;DHT22;8717;53.588;10.176;2022-09-13T01:12:31;15.00;99.90
17202;DHT22;8717;53.588;10.176;2022-09-13T01:15:00;15.00;99.90
17202;DHT22;8717;53.588;10.176;2022-09-13T01:17:30;14.90;99.90
17202;DHT22;8717;53.588;10.176;2022-09-13T01:19:58;14.90;99.90
17202;DHT22;8717;53.588;10.176;2022-09-13T01:22:43;14.80;99.90
17202;DHT22;8717;53.588;10.176;2022-09-13T01:25:43;14.80;99.90
17202;DHT22;8717;53.588;10.176;2022-09-13T01:28:50;14.70;99.90
17202;DHT22;8717;53.588;10.176;2022-09-13T01:31:25;14.70;99.90
17202;DHT22;8717;53.588;10.176;2022-09-13T01:34:06;14.70;99.90
17202;DHT22;8717;53.588;10.176;2022-09-13T01:36:46;14.60;99.90
17202;DHT22;8717;53.588;10.176;2022-09-13T01:39:21;14.60;99.90
17202;DHT22;8717;53.588;10.176;2022-09-13T01:42:01;14.50;99.90
17202;DHT22;8717;53.588;10.176;2022-09-13T01:44:43;14.50;99.90
17202;DHT22;8717;53.588;10.176;2022-09-13T01:47:22;14.50;99.90
17202;DHT22;8717;53.588;10.176;2022-09-13T01:49:58;14.50;99.90
17202;DHT22;8717;53.588;10.176;2022-09-13T01:52:31;14.40;99.90
17202;DHT22;8717;53.588;10.176;2022-09-13T01:55:04;14.40;99.90
17202;DHT22;8717;53.588;10.176;2022-09-13T01:57:37;14.40;99.90
17202;DHT22;8717;53.588;10.176;2022-09-13T02:00:08;14.40;99.90
17202;DHT22;8717;53.588;10.176;2022-09-13T02:02:44;14.40;99.90
17202;DHT22;8717;53.588;10.176;2022-09-13T02:05:15;14.40;99.90
17202;DHT22;8717;53.588;10.176;2022-09-13T02:07:57;14.40;99.90
17202;DHT22;8717;53.588;10.176;2022-09-13T02:10:31;14.40;99.90
17202;DHT22;8717;53.588;10.176;2022-09-13T02:13:04;14.40;99.90
17202;DHT22;8717;53.588;10.176;2022-09-13T02:15:35;14.40;99.90
17202;DHT22;8717;53.588;10.176;2022-09-13T02:18:08;14.30;99.90
17202;DHT22;8717;53.588;10.176;2022-09-13T02:20:39;14.40;99.90
17202;DHT22;8717;53.588;10.176;2022-09-13T02:23:10;14.40;99.90
17202;DHT22;8717;53.588;10.176;2022-09-13T02:25:39;14.40;99.90
17202;DHT22;8717;53.588;10.176;2022-09-13T02:28:10;14.40;99.90
17202;DHT22;8717;53.588;10.176;2022-09-13T02:30:40;14.40;99.90
17202;DHT22;8717;53.588;10.176;2022-09-13T02:33:11;14.40;99.90
17202;DHT22;8717;53.588;10.176;2022-09-13T02:35:44;14.40;99.90
17202;DHT22;8717;53.588;10.176;2022-09-13T02:38:14;14.40;99.90
17202;DHT22;8717;53.588;10.176;2022-09-13T02:40:50;14.40;99.90
17202;DHT22;8717;53.588;10.176;2022-09-13T02:43:21;14.40;99.90
17202;DHT22;8717;53.588;10.176;2022-09-13T02:45:57;14.40;99.90
17202;DHT22;8717;53.588;10.176;2022-09-13T02:48:35;14.40;99.90
17202;DHT22;8717;53.588;10.176;2022-09-13T02:51:12;14.40;99.90
17202;DHT22;8717;53.588;10.176;2022-09-13T02:53:43;14.40;99.90
17202;DHT22;8717;53.588;10.176;2022-09-13T02:56:20;14.50;99.90
17202;DHT22;8717;53.588;10.176;2022-09-13T02:58:53;14.50;99.90
17202;DHT22;8717;53.588;10.176;2022-09-13T03:01:22;14.50;99.90
17202;DHT22;8717;53.588;10.176;2022-09-13T03:03:52;14.50;99.90
17202;DHT22;8717;53.588;10.176;2022-09-13T03:06:23;14.50;99.90
17202;DHT22;8717;53.588;10.176;2022-09-13T03:08:50;14.50;99.90
17202;DHT22;8717;53.588;10.176;2022-09-13T03:11:26;14.50;99.90
17202;DHT22;8717;53.588;10.176;2022-09-13T03:14:06;14.40;99.90
17202;DHT22;8717;53.588;10.176;2022-09-13T03:16:47;14.40;99.90
17202;DHT22;8717;53.588;10.176;2022-09-13T03:19:26;14.50;99.90
17202;DHT22;8717;53.588;10.176;2022-09-13T03:22:07;14.50;99.90
17202;DHT22;8717;53.588;10.176;2022-09-13T03:24:48;14.50;99.90
17202;DHT22;8717;53.588;10.176;2022-09-13T03:27:25;14.50;99.90
17202;DHT22;8717;53.588;10.176;2022-09-13T03:30:00;14.50;99.90
17202;DHT22;8717;53.588;10.176;2022-09-13T03:32:35;14.50;99.90
17202;DHT22;8717;53.588;10.176;2022-09-13T03:35:16;14.50;99.90
17202;DHT22;8717;53.588;10.176;2022-09-13T03:37:49;14.50;99.90
17202;DHT22;8717;53.588;10.176;2022-09-13T03:40:20;14.50;99.90
17202;DHT22;8717;53.588;10.176;2022-09-13T03:42:52;14.50;99.90
17202;DHT22;8717;53.588;10.176;2022-09-13T03:45:27;14.50;99.90
17202;DHT22;8717;53.588;10.176;2022-09-13T03:47:55;14.50;99.90
17202;DHT22;8717;53.588;10.176;2022-09-13T03:50:24;14.50;99.90
17202;DHT22;8717;53.588;10.176;2022-09-13T03:52:54;14.50;99.90
17202;DHT22;8717;53.588;10.176;2022-09-13T03:55:24;14.50;99.90
17202;DHT22;8717;53.588;10.176;2022-09-13T03:57:51;14.50;99.90
17202;DHT22;8717;53.588;10.176;2022-09-13T04:00:18;14.50;99.90
17202;DHT22;8717;53.588;10.176;2022-09-13T04:02:45;14.50;99.90
17202;DHT22;8717;53.588;10.176;2022-09-13T04:05:12;14.50;99.90
17202;DHT22;8717;53.588;10.176;2022-09-13T04:07:40;14.60;99.90
17202;DHT22;8717;53.588;10.176;2022-09-13T04:10:07;14.50;99.90
17202;DHT22;8717;53.588;10.176;2022-09-13T04:12:35;14.60;99.90
17202;DHT22;8717;53.588;10.176;2022-09-13T04:15:02;14.60;99.90
17202;DHT22;8717;53.588;10.176;2022-09-13T04:17:29;14.60;99.90
17202;DHT22;8717;53.588;10.176;2022-09-13T04:19:56;14.60;99.90
17202;DHT22;8717;53.588;10.176;2022-09-13T04:22:22;14.60;99.90
17202;DHT22;8717;53.588;10.176;2022-09-13T04:24:50;14.60;99.90
17202;DHT22;8717;53.588;10.176;2022-09-13T04:27:17;14.60;99.90
17202;DHT22;8717;53.588;10.176;2022-09-13T04:29:47;14.60;99.90
17202;DHT22;8717;53.588;10.176;2022-09-13T04:32:13;14.60;99.90
17202;DHT22;8717;53.588;10.176;2022-09-13T04:34:40;14.60;99.90
17202;DHT22;8717;53.588;10.176;2022-09-13T04:37:09;14.60;99.90
17202;DHT22;8717;53.588;10.176;2022-09-13T04:39:35;14.70;99.90
17202;DHT22;8717;53.588;10.176;2022-09-13T04:42:04;14.70;99.90
17202;DHT22;8717;53.588;10.176;2022-09-13T04:44:31;14.70;99.90
17202;DHT22;8717;53.588;10.176;2022-09-13T04:47:07;14.70;99.90
17202;DHT22;8717;53.588;10.176;2022-09-13T04:49:34;14.70;99.90
17202;DHT22;8717;53.588;10.176;2022-09-13T04:52:16;14.70;99.90
17202;DHT22;8717;53.588;10.176;2022-09-13T04:54:43;14.80;99.90
17202;DHT22;8717;53.588;10.176;2022-09-13T04:57:15;14.70;99.90
17202;DHT22;8717;53.588;10.176;2022-09-13T04:59:44;14.70;99.90
17202;DHT22;8717;53.588;10.176;2022-09-13T05:02:16;14.70;99.90
17202;DHT22;8717;53.588;10.176;2022-09-13T05:04:52;14.70;99.90
17202;DHT22;8717;53.588;10.176;2022-09-13T05:07:19;14.60;99.90
17202;DHT22;8717;53.588;10.176;2022-09-13T05:09:49;14.60;99.90
17202;DHT22;8717;53.588;10.176;2022-09-13T05:12:17;14.60;99.90
17202;DHT22;8717;53.588;10.176;2022-09-13T05:14:44;14.60;99.90
17202;DHT22;8717;53.588;10.176;2022-09-13T05:17:13;14.60;99.90
17202;DHT22;8717;53.588;10.176;2022-09-13T05:19:39;14.60;99.90
17202;DHT22;8717;53.588;10.176;2022-09-13T05:22:06;14.60;99.90
17202;DHT22;8717;53.588;10.176;2022-09-13T05:24:33;14.60;99.90
17202;DHT22;8717;53.588;10.176;2022-09-13T05:26:59;14.60;99.90
17202;DHT22;8717;53.588;10.176;2022-09-13T05:29:27;14.60;99.90
17202;DHT22;8717;53.588;10.176;2022-09-13T05:31:54;14.60;99.90
17202;DHT22;8717;53.588;10.176;2022-09-13T05:34:21;14.60;99.90
17202;DHT22;8717;53.588;10.176;2022-09-13T05:36:47;14.70;99.90
17202;DHT22;8717;53.588;10.176;2022-09-13T05:39:16;14.70;99.90
17202;DHT22;8717;53.588;10.176;2022-09-13T05:41:43;14.70;99.90
17202;DHT22;8717;53.588;10.176;2022-09-13T05:44:10;14.70;99.90
17202;DHT22;8717;53.588;10.176;2022-09-13T05:46:38;14.70;99.90
17202;DHT22;8717;53.588;10.176;2022-09-13T05:49:05;14.80;99.90
17202;DHT22;8717;53.588;10.176;2022-09-13T05:51:32;14.80;99.90
17202;DHT22;8717;53.588;10.176;2022-09-13T05:53:58;14.80;99.90
17202;DHT22;8717;53.588;10.176;2022-09-13T05:56:27;14.90;99.90
17202;DHT22;8717;53.588;10.176;2022-09-13T05:58:58;14.90;99.90
17202;DHT22;8717;53.588;10.176;2022-09-13T06:01:26;15.00;99.90
17202;DHT22;8717;53.588;10.176;2022-09-13T06:03:58;15.00;99.90
17202;DHT22;8717;53.588;10.176;2022-09-13T06:06:25;15.10;99.90
17202;DHT22;8717;53.588;10.176;2022-09-13T06:08:52;15.10;99.90
17202;DHT22;8717;53.588;10.176;2022-09-13T06:11:19;15.10;99.90
17202;DHT22;8717;53.588;10.176;2022-09-13T06:13:49;15.20;99.90
17202;DHT22;8717;53.588;10.176;2022-09-13T06:16:16;15.30;99.90
17202;DHT22;8717;53.588;10.176;2022-09-13T06:18:43;15.40;99.90
17202;DHT22;8717;53.588;10.176;2022-09-13T06:21:15;15.40;99.90
17202;DHT22;8717;53.588;10.176;2022-09-13T06:23:43;15.50;99.90
17202;DHT22;8717;53.588;10.176;2022-09-13T06:26:12;15.50;99.90
17202;DHT22;8717;53.588;10.176;2022-09-13T06:28:40;15.50;99.90
17202;DHT22;8717;53.588;10.176;2022-09-13T06:31:08;15.60;99.90
17202;DHT22;8717;53.588;10.176;2022-09-13T06:33:37;15.60;99.90
17202;DHT22;8717;53.588;10.176;2022-09-13T06:36:06;15.70;99.90
17202;DHT22;8717;53.588;10.176;2022-09-13T06:38:34;15.80;99.90
17202;DHT22;8717;53.588;10.176;2022-09-13T06:41:02;15.80;99.90
17202;DHT22;8717;53.588;10.176;2022-09-13T06:43:29;15.90;99.90
17202;DHT22;8717;53.588;10.176;2022-09-13T06:45:59;16.00;99.90
17202;DHT22;8717;53.588;10.176;2022-09-13T06:48:30;16.00;99.90
17202;DHT22;8717;53.588;10.176;2022-09-13T06:50:57;16.10;99.90
17202;DHT22;8717;53.588;10.176;2022-09-13T06:53:24;16.10;99.90
17202;DHT22;8717;53.588;10.176;2022-09-13T06:56:01;16.20;99.90
17202;DHT22;8717;53.588;10.176;2022-09-13T06:58:28;16.30;99.90
17202;DHT22;8717;53.588;10.176;2022-09-13T07:01:07;16.40;99.90
17202;DHT22;8717;53.588;10.176;2022-09-13T07:03:37;16.50;99.90
17202;DHT22;8717;53.588;10.176;2022-09-13T07:06:08;16.60;99.90
17202;DHT22;8717;53.588;10.176;2022-09-13T07:08:36;16.70;99.90
17202;DHT22;8717;53.588;10.176;2022-09-13T07:11:04;16.80;99.90
17202;DHT22;8717;53.588;10.176;2022-09-13T07:13:31;16.90;99.90
17202;DHT22;8717;53.588;10.176;2022-09-13T07:16:00;17.00;99.90
17202;DHT22;8717;53.588;10.176;2022-09-13T07:18:27;17.00;99.90
17202;DHT22;8717;53.588;10.176;2022-09-13T07:20:58;17.10;99.90
17202;DHT22;8717;53.588;10.176;2022-09-13T07:23:25;17.10;99.90
17202;DHT22;8717;53.588;10.176;2022-09-13T07:25:53;17.20;99.90
17202;DHT22;8717;53.588;10.176;2022-09-13T07:28:21;17.30;99.90
17202;DHT22;8717;53.588;10.176;2022-09-13T07:30:48;17.40;99.90
17202;DHT22;8717;53.588;10.176;2022-09-13T07:33:15;17.40;99.90
17202;DHT22;8717;53.588;10.176;2022-09-13T07:35:41;17.60;99.90
17202;DHT22;8717;53.588;10.176;2022-09-13T07:38:08;17.70;99.90
17202;DHT22;8717;53.588;10.176;2022-09-13T07:40:37;17.80;99.90
17202;DHT22;8717;53.588;10.176;2022-09-13T07:43:04;17.90;99.90
17202;DHT22;8717;53.588;10.176;2022-09-13T07:45:35;18.00;99.90
17202;DHT22;8717;53.588;10.176;2022-09-13T07:48:02;18.10;99.90
17202;DHT22;8717;53.588;10.176;2022-09-13T07:50:28;18.20;99.90
17202;DHT22;8717;53.588;10.176;2022-09-13T07:52:55;18.30;99.90
17202;DHT22;8717;53.588;10.176;2022-09-13T07:55:22;18.20;99.90
17202;DHT22;8717;53.588;10.176;2022-09-13T07:57:48;18.30;99.90
17202;DHT22;8717;53.588;10.176;2022-09-13T08:00:15;18.30;99.90
17202;DHT22;8717;53.588;10.176;2022-09-13T08:02:44;18.30;99.90
17202;DHT22;8717;53.588;10.176;2022-09-13T08:05:11;18.40;99.90
17202;DHT22;8717;53.588;10.176;2022-09-13T08:07:38;18.50;99.90
17202;DHT22;8717;53.588;10.176;2022-09-13T08:10:07;18.60;99.90
17202;DHT22;8717;53.588;10.176;2022-09-13T08:12:36;18.70;99.90
17202;DHT22;8717;53.588;10.176;2022-09-13T08:15:03;18.70;99.90
17202;DHT22;8717;53.588;10.176;2022-09-13T08:17:30;18.70;99.90
17202;DHT22;8717;53.588;10.176;2022-09-13T08:19:58;18.70;99.90
17202;DHT22;8717;53.588;10.176;2022-09-13T08:22:25;18.70;99.90
17202;DHT22;8717;53.588;10.176;2022-09-13T08:24:52;18.70;99.90
17202;DHT22;8717;53.588;10.176;2022-09-13T08:27:21;18.70;99.90
17202;DHT22;8717;53.588;10.176;2022-09-13T08:29:48;18.70;99.90
17202;DHT22;8717;53.588;10.176;2022-09-13T08:32:15;18.80;99.90
17202;DHT22;8717;53.588;10.176;2022-09-13T08:34:41;18.80;99.90
17202;DHT22;8717;53.588;10.176;2022-09-13T08:37:09;18.80;99.90
17202;DHT22;8717;53.588;10.176;2022-09-13T08:39:37;18.90;99.90
17202;DHT22;8717;53.588;10.176;2022-09-13T08:42:18;18.90;99.90
17202;DHT22;8717;53.588;10.176;2022-09-13T08:44:49;18.80;99.90
17202;DHT22;8717;53.588;10.176;2022-09-13T08:47:29;18.80;99.90
17202;DHT22;8717;53.588;10.176;2022-09-13T08:50:03;18.80;99.90
17202;DHT22;8717;53.588;10.176;2022-09-13T08:52:37;18.80;99.90
17202;DHT22;8717;53.588;10.176;2022-09-13T08:55:20;18.70;99.90
17202;DHT22;8717;53.588;10.176;2022-09-13T08:57:54;18.80;99.90
17202;DHT22;8717;53.588;10.176;2022-09-13T09:00:30;18.80;99.90
17202;DHT22;8717;53.588;10.176;2022-09-13T09:03:15;18.80;99.90
17202;DHT22;8717;53.588;10.176;2022-09-13T09:05:45;18.90;99.90
17202;DHT22;8717;53.588;10.176;2022-09-13T09:08:24;18.90;99.90
17202;DHT22;8717;53.588;10.176;2022-09-13T09:10:54;19.00;99.90
17202;DHT22;8717;53.588;10.176;2022-09-13T09:13:25;19.10;99.90
17202;DHT22;8717;53.588;10.176;2022-09-13T09:15:57;19.20;99.90
17202;DHT22;8717;53.588;10.176;2022-09-13T09:18:29;19.30;99.90
17202;DHT22;8717;53.588;10.176;2022-09-13T09:21:00;19.40;99.90
17202;DHT22;8717;53.588;10.176;2022-09-13T09:23:35;19.50;99.90
17202;DHT22;8717;53.588;10.176;2022-09-13T09:26:14;19.70;99.90
17202;DHT22;8717;53.588;10.176;2022-09-13T09:28:42;19.90;99.90
17202;DHT22;8717;53.588;10.176;2022-09-13T09:31:13;20.30;99.90
17202;DHT22;8717;53.588;10.176;2022-09-13T09:33:51;20.60;99.90
17202;DHT22;8717;53.588;10.176;2022-09-13T09:36:27;20.90;99.90
17202;DHT22;8717;53.588;10.176;2022-09-13T09:38:59;21.20;99.50
17202;DHT22;8717;53.588;10.176;2022-09-13T09:41:30;21.40;98.60
17202;DHT22;8717;53.588;10.176;2022-09-13T09:44:15;21.50;98.70
17202;DHT22;8717;53.588;10.176;2022-09-13T09:46:44;21.70;98.10
17202;DHT22;8717;53.588;10.176;2022-09-13T09:49:17;21.90;98.20
17202;DHT22;8717;53.588;10.176;2022-09-13T09:52:05;22.10;97.00
17202;DHT22;8717;53.588;10.176;2022-09-13T09:54:34;22.40;97.10
17202;DHT22;8717;53.588;10.176;2022-09-13T09:57:02;22.70;97.10
17202;DHT22;8717;53.588;10.176;2022-09-13T09:59:32;22.90;96.70
17202;DHT22;8717;53.588;10.176;2022-09-13T10:01:59;23.00;96.00
17202;DHT22;8717;53.588;10.176;2022-09-13T10:04:29;23.10;95.30
17202;DHT22;8717;53.588;10.176;2022-09-13T10:07:16;23.20;95.00
17202;DHT22;8717;53.588;10.176;2022-09-13T10:09:57;23.20;94.70
17202;DHT22;8717;53.588;10.176;2022-09-13T10:12:29;23.30;93.90
17202;DHT22;8717;53.588;10.176;2022-09-13T10:15:04;23.40;93.80
17202;DHT22;8717;53.588;10.176;2022-09-13T10:17:31;23.60;94.20
17202;DHT22;8717;53.588;10.176;2022-09-13T10:19:59;23.90;93.50
17202;DHT22;8717;53.588;10.176;2022-09-13T10:22:30;24.10;93.20
17202;DHT22;8717;53.588;10.176;2022-09-13T10:25:12;24.50;92.80
17202;DHT22;8717;53.588;10.176;2022-09-13T10:27:41;24.80;91.90
17202;DHT22;8717;53.588;10.176;2022-09-13T10:30:30;25.10;91.60
17202;DHT22;8717;53.588;10.176;2022-09-13T10:32:57;25.50;91.10
17202;DHT22;8717;53.588;10.176;2022-09-13T10:35:24;25.90;91.30
17202;DHT22;8717;53.588;10.176;2022-09-13T10:37:51;26.20;89.60
17202;DHT22;8717;53.588;10.176;2022-09-13T10:40:25;26.40;87.30
17202;DHT22;8717;53.588;10.176;2022-09-13T10:42:55;26.50;85.50
17202;DHT22;8717;53.588;10.176;2022-09-13T10:45:24;26.60;85.30
17202;DHT22;8717;53.588;10.176;2022-09-13T10:47:53;26.50;83.30
17202;DHT22;8717;53.588;10.176;2022-09-13T10:50:23;26.20;83.50
17202;DHT22;8717;53.588;10.176;2022-09-13T10:52:51;25.90;81.80
17202;DHT22;8717;53.588;10.176;2022-09-13T10:55:35;25.60;82.10
17202;DHT22;8717;53.588;10.176;2022-09-13T10:58:15;25.30;83.40
17202;DHT22;8717;53.588;10.176;2022-09-13T11:03:56;25.20;84.50
17202;DHT22;8717;53.588;10.176;2022-09-13T11:06:37;25.20;83.80
17202;DHT22;8717;53.588;10.176;2022-09-13T11:09:10;25.20;82.90
17202;DHT22;8717;53.588;10.176;2022-09-13T11:11:45;25.10;81.50
17202;DHT22;8717;53.588;10.176;2022-09-13T11:14:38;25.00;81.20
17202;DHT22;8717;53.588;10.176;2022-09-13T11:17:17;24.70;81.10
17202;DHT22;8717;53.588;10.176;2022-09-13T11:20:06;24.50;81.90
17202;DHT22;8717;53.588;10.176;2022-09-13T11:22:55;24.30;82.20
17202;DHT22;8717;53.588;10.176;2022-09-13T11:25:38;24.20;83.70
17202;DHT22;8717;53.588;10.176;2022-09-13T11:28:15;24.10;81.60
17202;DHT22;8717;53.588;10.176;2022-09-13T11:33:46;23.80;79.60
17202;DHT22;8717;53.588;10.176;2022-09-13T11:36:29;23.60;79.70
17202;DHT22;8717;53.588;10.176;2022-09-13T11:39:14;23.40;80.10
17202;DHT22;8717;53.588;10.176;2022-09-13T11:41:49;23.20;80.70
17202;DHT22;8717;53.588;10.176;2022-09-13T11:47:28;23.00;81.50
17202;DHT22;8717;53.588;10.176;2022-09-13T11:50:08;23.10;82.80
17202;DHT22;8717;53.588;10.176;2022-09-13T11:52:47;23.10;80.70
17202;DHT22;8717;53.588;10.176;2022-09-13T11:55:19;23.30;79.60
17202;DHT22;8717;53.588;10.176;2022-09-13T11:57:50;23.40;80.30
17202;DHT22;8717;53.588;10.176;2022-09-13T12:00:21;23.50;80.30
17202;DHT22;8717;53.588;10.176;2022-09-13T12:02:55;23.50;79.40
17202;DHT22;8717;53.588;10.176;2022-09-13T12:05:26;23.50;79.30
17202;DHT22;8717;53.588;10.176;2022-09-13T12:07:56;23.40;79.70
17202;DHT22;8717;53.588;10.176;2022-09-13T12:10:28;23.40;80.20
17202;DHT22;8717;53.588;10.176;2022-09-13T12:12:56;23.30;80.00
17202;DHT22;8717;53.588;10.176;2022-09-13T12:15:34;23.20;78.30
17202;DHT22;8717;53.588;10.176;2022-09-13T12:18:05;23.10;78.50
17202;DHT22;8717;53.588;10.176;2022-09-13T12:20:37;23.10;79.10
17202;DHT22;8717;53.588;10.176;2022-09-13T12:23:07;23.20;80.20
17202;DHT22;8717;53.588;10.176;2022-09-13T12:25:43;23.30;79.80
17202;DHT22;8717;53.588;10.176;2022-09-13T12:28:16;23.30;78.70
17202;DHT22;8717;53.588;10.176;2022-09-13T12:30:50;23.30;79.30
17202;DHT22;8717;53.588;10.176;2022-09-13T12:33:18;23.30;79.00
17202;DHT22;8717;53.588;10.176;2022-09-13T12:35:54;23.30;80.10
17202;DHT22;8717;53.588;10.176;2022-09-13T12:38:48;23.30;80.00
17202;DHT22;8717;53.588;10.176;2022-09-13T12:41:33;23.20;80.70
17202;DHT22;8717;53.588;10.176;2022-09-13T12:44:26;23.20;81.50
17202;DHT22;8717;53.588;10.176;2022-09-13T12:47:15;23.20;80.00
17202;DHT22;8717;53.588;10.176;2022-09-13T12:49:55;23.20;80.00
17202;DHT22;8717;53.588;10.176;2022-09-13T12:52:32;23.10;80.30
17202;DHT22;8717;53.588;10.176;2022-09-13T12:55:17;23.10;79.40
17202;DHT22;8717;53.588;10.176;2022-09-13T12:57:53;23.00;80.70
17202;DHT22;8717;53.588;10.176;2022-09-13T13:00:24;23.00;81.00
17202;DHT22;8717;53.588;10.176;2022-09-13T13:03:00;23.00;81.30
17202;DHT22;8717;53.588;10.176;2022-09-13T13:05:38;23.00;81.20
17202;DHT22;8717;53.588;10.176;2022-09-13T13:08:24;23.00;81.20
17202;DHT22;8717;53.588;10.176;2022-09-13T13:11:00;23.00;80.50
17202;DHT22;8717;53.588;10.176;2022-09-13T13:13:33;23.00;81.40
17202;DHT22;8717;53.588;10.176;2022-09-13T13:16:04;23.10;81.50
17202;DHT22;8717;53.588;10.176;2022-09-13T13:18:43;23.10;81.40
17202;DHT22;8717;53.588;10.176;2022-09-13T13:21:35;23.10;80.50
17202;DHT22;8717;53.588;10.176;2022-09-13T13:27:36;23.10;80.80
17202;DHT22;8717;53.588;10.176;2022-09-13T13:30:41;23.20;80.40
17202;DHT22;8717;53.588;10.176;2022-09-13T13:33:16;23.10;80.80
17202;DHT22;8717;53.588;10.176;2022-09-13T13:35:45;23.10;80.80
17202;DHT22;8717;53.588;10.176;2022-09-13T13:41:38;23.00;80.60
17202;DHT22;8717;53.588;10.176;2022-09-13T13:50:27;22.60;80.20
17202;DHT22;8717;53.588;10.176;2022-09-13T13:52:59;22.40;80.30
17202;DHT22;8717;53.588;10.176;2022-09-13T13:55:42;22.30;80.50
17202;DHT22;8717;53.588;10.176;2022-09-13T13:58:29;22.10;81.20
17202;DHT22;8717;53.588;10.176;2022-09-13T14:00:59;22.00;82.00
17202;DHT22;8717;53.588;10.176;2022-09-13T14:03:41;21.80;82.90
17202;DHT22;8717;53.588;10.176;2022-09-13T14:06:16;21.60;84.40
17202;DHT22;8717;53.588;10.176;2022-09-13T14:08:56;21.40;85.20
17202;DHT22;8717;53.588;10.176;2022-09-13T14:11:37;21.20;86.30
17202;DHT22;8717;53.588;10.176;2022-09-13T14:14:24;21.00;87.40
17202;DHT22;8717;53.588;10.176;2022-09-13T14:17:01;20.90;88.10
17202;DHT22;8717;53.588;10.176;2022-09-13T14:19:38;20.80;88.60
17202;DHT22;8717;53.588;10.176;2022-09-13T14:22:13;20.80;89.00
17202;DHT22;8717;53.588;10.176;2022-09-13T14:24:42;20.80;88.60
17202;DHT22;8717;53.588;10.176;2022-09-13T14:27:16;20.80;88.60
17202;DHT22;8717;53.588;10.176;2022-09-13T14:29:44;20.90;89.20
17202;DHT22;8717;53.588;10.176;2022-09-13T14:32:15;21.00;89.90
17202;DHT22;8717;53.588;10.176;2022-09-13T14:34:54;21.00;89.00
17202;DHT22;8717;53.588;10.176;2022-09-13T14:37:25;21.10;90.00
17202;DHT22;8717;53.588;10.176;2022-09-13T14:39:55;21.10;89.20
17202;DHT22;8717;53.588;10.176;2022-09-13T14:42:22;21.10;89.40
17202;DHT22;8717;53.588;10.176;2022-09-13T14:44:49;21.10;89.50
17202;DHT22;8717;53.588;10.176;2022-09-13T14:47:22;21.20;90.00
17202;DHT22;8717;53.588;10.176;2022-09-13T14:49:52;21.30;90.10
17202;DHT22;8717;53.588;10.176;2022-09-13T14:52:26;21.40;89.60
17202;DHT22;8717;53.588;10.176;2022-09-13T14:54:58;21.60;88.60
17202;DHT22;8717;53.588;10.176;2022-09-13T14:57:30;21.70;88.50
17202;DHT22;8717;53.588;10.176;2022-09-13T15:00:01;21.80;88.00
17202;DHT22;8717;53.588;10.176;2022-09-13T15:02:30;21.80;87.60
17202;DHT22;8717;53.588;10.176;2022-09-13T15:04:59;21.80;86.90
17202;DHT22;8717;53.588;10.176;2022-09-13T15:07:28;21.80;86.80
17202;DHT22;8717;53.588;10.176;2022-09-13T15:10:05;21.90;86.80
17202;DHT22;8717;53.588;10.176;2022-09-13T15:12:33;21.80;86.40
17202;DHT22;8717;53.588;10.176;2022-09-13T15:15:24;21.80;86.20
17202;DHT22;8717;53.588;10.176;2022-09-13T15:17:55;21.60;86.10
17202;DHT22;8717;53.588;10.176;2022-09-13T15:20:23;21.50;85.80
17202;DHT22;8717;53.588;10.176;2022-09-13T15:22:50;21.40;85.90
17202;DHT22;8717;53.588;10.176;2022-09-13T15:25:26;21.30;86.20
17202;DHT22;8717;53.588;10.176;2022-09-13T15:27:54;21.20;86.20
17202;DHT22;8717;53.588;10.176;2022-09-13T15:30:25;21.10;86.30
17202;DHT22;8717;53.588;10.176;2022-09-13T15:33:14;21.00;86.40
17202;DHT22;8717;53.588;10.176;2022-09-13T15:35:43;20.90;86.60
17202;DHT22;8717;53.588;10.176;2022-09-13T15:38:21;20.80;86.70
17202;DHT22;8717;53.588;10.176;2022-09-13T15:41:00;20.70;86.40
17202;DHT22;8717;53.588;10.176;2022-09-13T15:43:28;20.70;86.60
17202;DHT22;8717;53.588;10.176;2022-09-13T15:45:56;20.60;86.70
17202;DHT22;8717;53.588;10.176;2022-09-13T15:48:26;20.50;86.90
17202;DHT22;8717;53.588;10.176;2022-09-13T15:51:09;20.30;86.90
17202;DHT22;8717;53.588;10.176;2022-09-13T15:53:37;20.30;86.90
17202;DHT22;8717;53.588;10.176;2022-09-13T15:56:07;20.20;87.10
17202;DHT22;8717;53.588;10.176;2022-09-13T15:58:35;20.00;87.30
17202;DHT22;8717;53.588;10.176;2022-09-13T16:01:03;19.80;87.60
17202;DHT22;8717;53.588;10.176;2022-09-13T16:03:30;19.70;88.10
17202;DHT22;8717;53.588;10.176;2022-09-13T16:05:57;19.50;88.50
17202;DHT22;8717;53.588;10.176;2022-09-13T16:08:24;19.30;88.90
17202;DHT22;8717;53.588;10.176;2022-09-13T16:10:51;19.10;89.40
17202;DHT22;8717;53.588;10.176;2022-09-13T16:13:19;19.00;90.00
17202;DHT22;8717;53.588;10.176;2022-09-13T16:15:46;18.80;90.20
17202;DHT22;8717;53.588;10.176;2022-09-13T16:18:13;18.80;90.40
17202;DHT22;8717;53.588;10.176;2022-09-13T16:20:40;18.70;90.30
17202;DHT22;8717;53.588;10.176;2022-09-13T16:23:07;18.60;90.20